sensor_id;sensor_type;location;lat;lon;timestamp;P1;durP1;ratioP1;P2;durP2;ratioP2
57085;SDS011;42964;42.910;23.792;2023-05-24T00:01:09;21.55;;;16.33;;
57085;SDS011;42964;42.910;23.792;2023-05-24T00:06:08;23.70;;;15.77;;
57085;SDS011;42964;42.910;23.792;2023-05-24T00:11:07;19.27;;;14.60;;
57085;SDS011;42964;42.910;23.792;2023-05-24T00:16:06;18.77;;;14.13;;
57085;SDS011;42964;42.910;23.792;2023-05-24T00:21:05;20.83;;;14.88;;
57085;SDS011;42964;42.910;23.792;2023-05-24T00:26:07;21.75;;;15.07;;
57085;SDS011;42964;42.910;23.792;2023-05-24T00:36:05;19.17;;;13.18;;
57085;SDS011;42964;42.910;23.792;2023-05-24T00:41:04;20.92;;;13.85;;
57085;SDS011;42964;42.910;23.792;2023-05-24T00:51:31;21.75;;;14.73;;
57085;SDS011;42964;42.910;23.792;2023-05-24T00:56:31;19.08;;;13.27;;
57085;SDS011;42964;42.910;23.792;2023-05-24T01:01:31;20.20;;;13.07;;
57085;SDS011;42964;42.910;23.792;2023-05-24T01:06:31;18.00;;;12.90;;
57085;SDS011;42964;42.910;23.792;2023-05-24T01:17:11;19.52;;;13.68;;
57085;SDS011;42964;42.910;23.792;2023-05-24T01:22:23;17.52;;;14.10;;
57085;SDS011;42964;42.910;23.792;2023-05-24T01:27:36;16.47;;;12.97;;
57085;SDS011;42964;42.910;23.792;2023-05-24T01:32:36;17.85;;;13.65;;
57085;SDS011;42964;42.910;23.792;2023-05-24T01:37:36;23.17;;;14.50;;
57085;SDS011;42964;42.910;23.792;2023-05-24T01:42:37;19.88;;;14.13;;
57085;SDS011;42964;42.910;23.792;2023-05-24T01:53:12;18.75;;;13.82;;
57085;SDS011;42964;42.910;23.792;2023-05-24T01:58:13;20.00;;;14.50;;
57085;SDS011;42964;42.910;23.792;2023-05-24T02:03:14;20.15;;;14.38;;
57085;SDS011;42964;42.910;23.792;2023-05-24T02:08:14;21.33;;;14.05;;
57085;SDS011;42964;42.910;23.792;2023-05-24T02:13:13;20.52;;;13.13;;
57085;SDS011;42964;42.910;23.792;2023-05-24T02:18:15;20.73;;;14.18;;
57085;SDS011;42964;42.910;23.792;2023-05-24T02:23:16;21.27;;;14.32;;
57085;SDS011;42964;42.910;23.792;2023-05-24T02:28:15;22.20;;;15.95;;
57085;SDS011;42964;42.910;23.792;2023-05-24T02:33:14;20.58;;;15.27;;
57085;SDS011;42964;42.910;23.792;2023-05-24T02:38:13;21.55;;;15.35;;
57085;SDS011;42964;42.910;23.792;2023-05-24T02:43:12;21.73;;;15.38;;
57085;SDS011;42964;42.910;23.792;2023-05-24T02:48:10;20.67;;;14.95;;
57085;SDS011;42964;42.910;23.792;2023-05-24T02:53:09;20.45;;;14.50;;
57085;SDS011;42964;42.910;23.792;2023-05-24T02:58:09;21.25;;;15.18;;
57085;SDS011;42964;42.910;23.792;2023-05-24T03:03:09;23.75;;;14.15;;
57085;SDS011;42964;42.910;23.792;2023-05-24T03:13:07;25.48;;;14.10;;
57085;SDS011;42964;42.910;23.792;2023-05-24T03:18:06;22.58;;;14.25;;
57085;SDS011;42964;42.910;23.792;2023-05-24T03:23:05;23.48;;;14.90;;
57085;SDS011;42964;42.910;23.792;2023-05-24T03:28:04;26.35;;;14.70;;
57085;SDS011;42964;42.910;23.792;2023-05-24T03:33:04;22.20;;;13.60;;
57085;SDS011;42964;42.910;23.792;2023-05-24T03:38:03;21.67;;;14.57;;
57085;SDS011;42964;42.910;23.792;2023-05-24T03:43:02;21.02;;;13.63;;
57085;SDS011;42964;42.910;23.792;2023-05-24T03:48:01;22.65;;;14.18;;
57085;SDS011;42964;42.910;23.792;2023-05-24T03:57:59;24.90;;;13.98;;
57085;SDS011;42964;42.910;23.792;2023-05-24T04:02:58;16.77;;;12.88;;
57085;SDS011;42964;42.910;23.792;2023-05-24T04:07:58;19.45;;;13.38;;
57085;SDS011;42964;42.910;23.792;2023-05-24T04:12:57;20.15;;;13.98;;
57085;SDS011;42964;42.910;23.792;2023-05-24T04:17:58;17.63;;;13.82;;
57085;SDS011;42964;42.910;23.792;2023-05-24T04:22:58;19.30;;;13.93;;
57085;SDS011;42964;42.910;23.792;2023-05-24T04:27:56;22.92;;;13.27;;
57085;SDS011;42964;42.910;23.792;2023-05-24T04:32:56;20.25;;;14.23;;
57085;SDS011;42964;42.910;23.792;2023-05-24T04:37:55;23.52;;;15.02;;
57085;SDS011;42964;42.910;23.792;2023-05-24T04:42:55;23.15;;;15.70;;
57085;SDS011;42964;42.910;23.792;2023-05-24T04:47:54;19.85;;;14.20;;
57085;SDS011;42964;42.910;23.792;2023-05-24T04:52:53;20.48;;;15.30;;
57085;SDS011;42964;42.910;23.792;2023-05-24T05:02:50;21.45;;;14.10;;
57085;SDS011;42964;42.910;23.792;2023-05-24T05:07:49;23.40;;;14.95;;
57085;SDS011;42964;42.910;23.792;2023-05-24T05:17:48;25.40;;;15.55;;
57085;SDS011;42964;42.910;23.792;2023-05-24T05:22:47;22.02;;;14.07;;
57085;SDS011;42964;42.910;23.792;2023-05-24T05:27:46;19.80;;;15.35;;
57085;SDS011;42964;42.910;23.792;2023-05-24T05:32:45;23.85;;;15.07;;
57085;SDS011;42964;42.910;23.792;2023-05-24T05:42:43;16.60;;;13.40;;
57085;SDS011;42964;42.910;23.792;2023-05-24T05:47:44;18.08;;;13.98;;
57085;SDS011;42964;42.910;23.792;2023-05-24T05:57:42;17.67;;;13.90;;
57085;SDS011;42964;42.910;23.792;2023-05-24T06:07:40;20.73;;;13.23;;
57085;SDS011;42964;42.910;23.792;2023-05-24T06:17:38;14.27;;;9.43;;
57085;SDS011;42964;42.910;23.792;2023-05-24T06:27:37;14.50;;;8.77;;
57085;SDS011;42964;42.910;23.792;2023-05-24T06:32:36;11.50;;;7.75;;
57085;SDS011;42964;42.910;23.792;2023-05-24T06:37:35;11.13;;;7.88;;
57085;SDS011;42964;42.910;23.792;2023-05-24T06:42:34;13.32;;;8.18;;
57085;SDS011;42964;42.910;23.792;2023-05-24T06:47:34;10.40;;;7.68;;
57085;SDS011;42964;42.910;23.792;2023-05-24T06:52:33;10.82;;;7.25;;
57085;SDS011;42964;42.910;23.792;2023-05-24T06:57:33;9.13;;;6.82;;
57085;SDS011;42964;42.910;23.792;2023-05-24T07:02:32;10.45;;;6.00;;
57085;SDS011;42964;42.910;23.792;2023-05-24T07:07:31;8.93;;;6.25;;
57085;SDS011;42964;42.910;23.792;2023-05-24T07:12:30;9.70;;;6.60;;
57085;SDS011;42964;42.910;23.792;2023-05-24T07:17:30;8.05;;;6.43;;
57085;SDS011;42964;42.910;23.792;2023-05-24T07:22:29;10.80;;;6.13;;
57085;SDS011;42964;42.910;23.792;2023-05-24T07:27:29;10.07;;;5.88;;
57085;SDS011;42964;42.910;23.792;2023-05-24T07:32:28;10.65;;;6.70;;
57085;SDS011;42964;42.910;23.792;2023-05-24T07:37:27;9.88;;;5.55;;
57085;SDS011;42964;42.910;23.792;2023-05-24T07:42:25;7.82;;;5.22;;
57085;SDS011;42964;42.910;23.792;2023-05-24T07:47:24;7.70;;;5.03;;
57085;SDS011;42964;42.910;23.792;2023-05-24T07:52:23;8.10;;;5.00;;
57085;SDS011;42964;42.910;23.792;2023-05-24T07:57:23;11.00;;;6.13;;
57085;SDS011;42964;42.910;23.792;2023-05-24T08:02:22;9.23;;;5.03;;
57085;SDS011;42964;42.910;23.792;2023-05-24T08:07:22;8.75;;;5.50;;
57085;SDS011;42964;42.910;23.792;2023-05-24T08:12:22;9.35;;;6.38;;
57085;SDS011;42964;42.910;23.792;2023-05-24T08:17:21;14.32;;;5.95;;
57085;SDS011;42964;42.910;23.792;2023-05-24T08:22:20;11.15;;;5.57;;
57085;SDS011;42964;42.910;23.792;2023-05-24T08:27:19;6.75;;;4.45;;
57085;SDS011;42964;42.910;23.792;2023-05-24T08:32:19;6.47;;;5.10;;
57085;SDS011;42964;42.910;23.792;2023-05-24T08:37:18;7.88;;;4.65;;
57085;SDS011;42964;42.910;23.792;2023-05-24T08:42:18;8.00;;;5.20;;
57085;SDS011;42964;42.910;23.792;2023-05-24T08:47:20;6.85;;;4.75;;
57085;SDS011;42964;42.910;23.792;2023-05-24T08:52:20;8.75;;;4.85;;
57085;SDS011;42964;42.910;23.792;2023-05-24T08:57:20;7.30;;;4.70;;
57085;SDS011;42964;42.910;23.792;2023-05-24T09:02:20;9.70;;;4.50;;
57085;SDS011;42964;42.910;23.792;2023-05-24T09:07:22;11.27;;;5.13;;
57085;SDS011;42964;42.910;23.792;2023-05-24T09:12:22;6.57;;;5.13;;
57085;SDS011;42964;42.910;23.792;2023-05-24T09:17:24;6.45;;;4.68;;
57085;SDS011;42964;42.910;23.792;2023-05-24T09:22:23;7.57;;;4.57;;
57085;SDS011;42964;42.910;23.792;2023-05-24T09:27:23;7.78;;;4.60;;
57085;SDS011;42964;42.910;23.792;2023-05-24T09:32:23;7.78;;;4.82;;
57085;SDS011;42964;42.910;23.792;2023-05-24T09:37:22;8.00;;;4.80;;
57085;SDS011;42964;42.910;23.792;2023-05-24T09:42:25;6.53;;;4.80;;
57085;SDS011;42964;42.910;23.792;2023-05-24T09:47:30;7.25;;;4.80;;
57085;SDS011;42964;42.910;23.792;2023-05-24T09:52:30;7.28;;;4.82;;
57085;SDS011;42964;42.910;23.792;2023-05-24T09:57:33;6.95;;;4.28;;
57085;SDS011;42964;42.910;23.792;2023-05-24T10:02:32;9.05;;;4.90;;
57085;SDS011;42964;42.910;23.792;2023-05-24T10:07:32;7.30;;;4.50;;
57085;SDS011;42964;42.910;23.792;2023-05-24T10:12:33;6.53;;;4.28;;
57085;SDS011;42964;42.910;23.792;2023-05-24T10:17:33;5.15;;;4.13;;
57085;SDS011;42964;42.910;23.792;2023-05-24T10:22:33;9.43;;;4.97;;
57085;SDS011;42964;42.910;23.792;2023-05-24T10:27:38;8.82;;;4.40;;
57085;SDS011;42964;42.910;23.792;2023-05-24T10:32:37;7.60;;;4.22;;
57085;SDS011;42964;42.910;23.792;2023-05-24T10:37:37;6.00;;;4.47;;
57085;SDS011;42964;42.910;23.792;2023-05-24T10:42:37;8.40;;;4.38;;
57085;SDS011;42964;42.910;23.792;2023-05-24T10:47:36;6.70;;;4.20;;
57085;SDS011;42964;42.910;23.792;2023-05-24T10:52:35;6.85;;;4.47;;
57085;SDS011;42964;42.910;23.792;2023-05-24T10:57:35;7.75;;;4.10;;
57085;SDS011;42964;42.910;23.792;2023-05-24T11:02:35;6.63;;;4.20;;
57085;SDS011;42964;42.910;23.792;2023-05-24T11:07:39;5.28;;;3.97;;
57085;SDS011;42964;42.910;23.792;2023-05-24T11:12:40;6.60;;;4.32;;
57085;SDS011;42964;42.910;23.792;2023-05-24T11:18:12;6.53;;;4.47;;
57085;SDS011;42964;42.910;23.792;2023-05-24T11:23:12;7.25;;;3.95;;
57085;SDS011;42964;42.910;23.792;2023-05-24T11:28:12;6.50;;;4.60;;
57085;SDS011;42964;42.910;23.792;2023-05-24T11:33:21;6.28;;;3.88;;
57085;SDS011;42964;42.910;23.792;2023-05-24T11:38:21;6.43;;;4.10;;
57085;SDS011;42964;42.910;23.792;2023-05-24T11:43:20;6.47;;;4.18;;
57085;SDS011;42964;42.910;23.792;2023-05-24T11:48:19;5.32;;;3.90;;
57085;SDS011;42964;42.910;23.792;2023-05-24T11:53:18;6.00;;;3.83;;
57085;SDS011;42964;42.910;23.792;2023-05-24T12:03:19;5.68;;;4.25;;
57085;SDS011;42964;42.910;23.792;2023-05-24T12:08:19;4.35;;;3.60;;
57085;SDS011;42964;42.910;23.792;2023-05-24T12:13:21;5.30;;;3.97;;
57085;SDS011;42964;42.910;23.792;2023-05-24T12:18:22;6.28;;;3.75;;
57085;SDS011;42964;42.910;23.792;2023-05-24T12:23:24;7.05;;;3.92;;
57085;SDS011;42964;42.910;23.792;2023-05-24T12:28:36;5.68;;;4.25;;
57085;SDS011;42964;42.910;23.792;2023-05-24T12:33:36;5.50;;;4.10;;
57085;SDS011;42964;42.910;23.792;2023-05-24T12:38:35;10.48;;;4.50;;
57085;SDS011;42964;42.910;23.792;2023-05-24T12:43:34;8.02;;;3.75;;
57085;SDS011;42964;42.910;23.792;2023-05-24T12:48:34;5.80;;;3.88;;
57085;SDS011;42964;42.910;23.792;2023-05-24T12:53:33;11.57;;;5.13;;
57085;SDS011;42964;42.910;23.792;2023-05-24T12:58:32;10.60;;;7.32;;
57085;SDS011;42964;42.910;23.792;2023-05-24T13:03:31;5.32;;;3.53;;
57085;SDS011;42964;42.910;23.792;2023-05-24T13:08:30;6.90;;;4.43;;
57085;SDS011;42964;42.910;23.792;2023-05-24T13:13:29;7.68;;;4.70;;
57085;SDS011;42964;42.910;23.792;2023-05-24T13:18:30;6.88;;;5.35;;
57085;SDS011;42964;42.910;23.792;2023-05-24T13:23:29;5.28;;;3.70;;
57085;SDS011;42964;42.910;23.792;2023-05-24T13:28:29;5.63;;;4.10;;
57085;SDS011;42964;42.910;23.792;2023-05-24T13:33:29;8.98;;;5.40;;
57085;SDS011;42964;42.910;23.792;2023-05-24T13:38:29;6.13;;;4.30;;
57085;SDS011;42964;42.910;23.792;2023-05-24T13:43:28;5.63;;;3.90;;
57085;SDS011;42964;42.910;23.792;2023-05-24T13:48:26;5.28;;;3.70;;
57085;SDS011;42964;42.910;23.792;2023-05-24T13:53:26;6.05;;;4.20;;
57085;SDS011;42964;42.910;23.792;2023-05-24T13:58:25;6.75;;;5.10;;
57085;SDS011;42964;42.910;23.792;2023-05-24T14:03:24;9.13;;;4.63;;
57085;SDS011;42964;42.910;23.792;2023-05-24T14:08:23;10.07;;;5.55;;
57085;SDS011;42964;42.910;23.792;2023-05-24T14:13:22;7.20;;;3.97;;
57085;SDS011;42964;42.910;23.792;2023-05-24T14:18:21;5.80;;;3.67;;
57085;SDS011;42964;42.910;23.792;2023-05-24T14:23:20;7.70;;;4.03;;
57085;SDS011;42964;42.910;23.792;2023-05-24T14:28:20;5.70;;;4.25;;
57085;SDS011;42964;42.910;23.792;2023-05-24T14:33:19;7.10;;;4.07;;
57085;SDS011;42964;42.910;23.792;2023-05-24T14:38:18;7.25;;;3.90;;
57085;SDS011;42964;42.910;23.792;2023-05-24T14:43:17;5.93;;;3.30;;
57085;SDS011;42964;42.910;23.792;2023-05-24T14:48:16;7.03;;;4.13;;
57085;SDS011;42964;42.910;23.792;2023-05-24T14:53:15;6.93;;;4.22;;
57085;SDS011;42964;42.910;23.792;2023-05-24T14:58:14;8.52;;;4.60;;
57085;SDS011;42964;42.910;23.792;2023-05-24T15:03:13;12.57;;;5.22;;
57085;SDS011;42964;42.910;23.792;2023-05-24T15:08:12;7.55;;;3.88;;
57085;SDS011;42964;42.910;23.792;2023-05-24T15:13:11;5.15;;;4.18;;
57085;SDS011;42964;42.910;23.792;2023-05-24T15:18:10;9.95;;;4.50;;
57085;SDS011;42964;42.910;23.792;2023-05-24T15:23:10;7.35;;;4.03;;
57085;SDS011;42964;42.910;23.792;2023-05-24T15:28:09;6.03;;;3.90;;
57085;SDS011;42964;42.910;23.792;2023-05-24T15:33:10;14.98;;;5.75;;
57085;SDS011;42964;42.910;23.792;2023-05-24T15:38:09;8.63;;;4.43;;
57085;SDS011;42964;42.910;23.792;2023-05-24T15:43:09;9.75;;;4.13;;
57085;SDS011;42964;42.910;23.792;2023-05-24T15:48:08;6.82;;;4.20;;
57085;SDS011;42964;42.910;23.792;2023-05-24T15:53:07;5.35;;;3.60;;
57085;SDS011;42964;42.910;23.792;2023-05-24T15:58:06;7.43;;;4.28;;
57085;SDS011;42964;42.910;23.792;2023-05-24T16:03:05;9.63;;;4.35;;
57085;SDS011;42964;42.910;23.792;2023-05-24T16:08:04;7.07;;;4.18;;
57085;SDS011;42964;42.910;23.792;2023-05-24T16:13:03;7.22;;;3.90;;
57085;SDS011;42964;42.910;23.792;2023-05-24T16:18:02;8.57;;;4.20;;
57085;SDS011;42964;42.910;23.792;2023-05-24T16:23:02;7.60;;;4.70;;
57085;SDS011;42964;42.910;23.792;2023-05-24T16:28:01;8.73;;;4.80;;
57085;SDS011;42964;42.910;23.792;2023-05-24T16:33:01;6.97;;;4.95;;
57085;SDS011;42964;42.910;23.792;2023-05-24T16:38:00;13.07;;;6.82;;
57085;SDS011;42964;42.910;23.792;2023-05-24T16:42:59;8.63;;;5.40;;
57085;SDS011;42964;42.910;23.792;2023-05-24T16:47:58;8.68;;;5.45;;
57085;SDS011;42964;42.910;23.792;2023-05-24T16:52:57;8.65;;;5.20;;
57085;SDS011;42964;42.910;23.792;2023-05-24T16:57:56;8.32;;;5.25;;
57085;SDS011;42964;42.910;23.792;2023-05-24T17:02:55;9.52;;;5.22;;
57085;SDS011;42964;42.910;23.792;2023-05-24T17:07:56;9.02;;;5.40;;
57085;SDS011;42964;42.910;23.792;2023-05-24T17:12:55;11.55;;;8.25;;
57085;SDS011;42964;42.910;23.792;2023-05-24T17:17:54;15.23;;;7.10;;
57085;SDS011;42964;42.910;23.792;2023-05-24T17:22:53;11.27;;;6.82;;
57085;SDS011;42964;42.910;23.792;2023-05-24T17:27:53;11.15;;;6.57;;
57085;SDS011;42964;42.910;23.792;2023-05-24T17:32:52;12.68;;;6.20;;
57085;SDS011;42964;42.910;23.792;2023-05-24T17:37:51;13.45;;;6.68;;
57085;SDS011;42964;42.910;23.792;2023-05-24T17:42:50;16.27;;;6.95;;
57085;SDS011;42964;42.910;23.792;2023-05-24T17:47:48;15.30;;;7.20;;
57085;SDS011;42964;42.910;23.792;2023-05-24T17:52:47;30.88;;;9.23;;
57085;SDS011;42964;42.910;23.792;2023-05-24T17:57:46;17.17;;;8.65;;
57085;SDS011;42964;42.910;23.792;2023-05-24T18:02:45;16.20;;;9.48;;
57085;SDS011;42964;42.910;23.792;2023-05-24T18:07:44;12.35;;;6.68;;
57085;SDS011;42964;42.910;23.792;2023-05-24T18:12:43;11.32;;;6.97;;
57085;SDS011;42964;42.910;23.792;2023-05-24T18:17:42;12.57;;;6.07;;
57085;SDS011;42964;42.910;23.792;2023-05-24T18:22:41;11.38;;;6.15;;
57085;SDS011;42964;42.910;23.792;2023-05-24T18:27:40;9.43;;;6.18;;
57085;SDS011;42964;42.910;23.792;2023-05-24T18:32:39;13.13;;;6.93;;
57085;SDS011;42964;42.910;23.792;2023-05-24T18:37:38;11.48;;;7.10;;
57085;SDS011;42964;42.910;23.792;2023-05-24T18:42:37;14.55;;;7.45;;
57085;SDS011;42964;42.910;23.792;2023-05-24T18:47:36;11.52;;;7.30;;
57085;SDS011;42964;42.910;23.792;2023-05-24T18:52:35;11.95;;;7.03;;
57085;SDS011;42964;42.910;23.792;2023-05-24T18:57:35;11.90;;;7.07;;
57085;SDS011;42964;42.910;23.792;2023-05-24T19:02:35;11.80;;;7.65;;
57085;SDS011;42964;42.910;23.792;2023-05-24T19:07:36;11.75;;;7.95;;
57085;SDS011;42964;42.910;23.792;2023-05-24T19:12:35;10.52;;;7.22;;
57085;SDS011;42964;42.910;23.792;2023-05-24T19:17:34;9.50;;;6.40;;
57085;SDS011;42964;42.910;23.792;2023-05-24T19:22:33;8.88;;;6.05;;
57085;SDS011;42964;42.910;23.792;2023-05-24T19:27:32;9.43;;;6.25;;
57085;SDS011;42964;42.910;23.792;2023-05-24T19:32:31;11.80;;;6.25;;
57085;SDS011;42964;42.910;23.792;2023-05-24T19:37:30;12.35;;;7.00;;
57085;SDS011;42964;42.910;23.792;2023-05-24T19:42:29;10.25;;;7.00;;
57085;SDS011;42964;42.910;23.792;2023-05-24T19:47:28;12.75;;;7.85;;
57085;SDS011;42964;42.910;23.792;2023-05-24T19:52:27;14.43;;;8.00;;
57085;SDS011;42964;42.910;23.792;2023-05-24T19:57:26;12.30;;;7.93;;
57085;SDS011;42964;42.910;23.792;2023-05-24T20:02:25;13.93;;;8.27;;
57085;SDS011;42964;42.910;23.792;2023-05-24T20:07:24;12.77;;;7.32;;
57085;SDS011;42964;42.910;23.792;2023-05-24T20:12:23;11.13;;;7.47;;
57085;SDS011;42964;42.910;23.792;2023-05-24T20:17:22;13.65;;;8.00;;
57085;SDS011;42964;42.910;23.792;2023-05-24T20:22:21;13.50;;;8.30;;
57085;SDS011;42964;42.910;23.792;2023-05-24T20:27:20;15.52;;;8.13;;
57085;SDS011;42964;42.910;23.792;2023-05-24T20:32:19;13.25;;;7.03;;
57085;SDS011;42964;42.910;23.792;2023-05-24T20:37:18;14.43;;;8.57;;
57085;SDS011;42964;42.910;23.792;2023-05-24T20:42:17;13.50;;;7.72;;
57085;SDS011;42964;42.910;23.792;2023-05-24T20:47:16;9.38;;;6.30;;
57085;SDS011;42964;42.910;23.792;2023-05-24T20:52:16;9.63;;;6.63;;
57085;SDS011;42964;42.910;23.792;2023-05-24T20:57:15;9.30;;;6.03;;
57085;SDS011;42964;42.910;23.792;2023-05-24T21:02:14;10.88;;;6.60;;
57085;SDS011;42964;42.910;23.792;2023-05-24T21:07:13;14.57;;;9.70;;
57085;SDS011;42964;42.910;23.792;2023-05-24T21:12:12;21.83;;;12.95;;
57085;SDS011;42964;42.910;23.792;2023-05-24T21:17:11;14.38;;;8.90;;
57085;SDS011;42964;42.910;23.792;2023-05-24T21:22:10;10.73;;;7.22;;
57085;SDS011;42964;42.910;23.792;2023-05-24T21:27:09;9.68;;;6.65;;
57085;SDS011;42964;42.910;23.792;2023-05-24T21:32:08;10.95;;;6.72;;
57085;SDS011;42964;42.910;23.792;2023-05-24T21:37:07;11.27;;;7.25;;
57085;SDS011;42964;42.910;23.792;2023-05-24T21:42:06;11.73;;;7.18;;
57085;SDS011;42964;42.910;23.792;2023-05-24T21:47:05;9.38;;;6.75;;
57085;SDS011;42964;42.910;23.792;2023-05-24T21:52:04;15.07;;;8.30;;
57085;SDS011;42964;42.910;23.792;2023-05-24T21:57:03;13.93;;;8.60;;
57085;SDS011;42964;42.910;23.792;2023-05-24T22:02:02;12.93;;;8.93;;
57085;SDS011;42964;42.910;23.792;2023-05-24T22:07:01;13.07;;;8.63;;
57085;SDS011;42964;42.910;23.792;2023-05-24T22:12:00;11.90;;;8.35;;
57085;SDS011;42964;42.910;23.792;2023-05-24T22:16:59;13.35;;;8.48;;
57085;SDS011;42964;42.910;23.792;2023-05-24T22:21:58;12.00;;;8.02;;
57085;SDS011;42964;42.910;23.792;2023-05-24T22:26:57;13.25;;;8.48;;
57085;SDS011;42964;42.910;23.792;2023-05-24T22:31:58;14.50;;;8.10;;
57085;SDS011;42964;42.910;23.792;2023-05-24T22:36:57;12.70;;;9.30;;
57085;SDS011;42964;42.910;23.792;2023-05-24T22:41:56;13.23;;;8.75;;
57085;SDS011;42964;42.910;23.792;2023-05-24T22:46:55;15.20;;;9.25;;
57085;SDS011;42964;42.910;23.792;2023-05-24T22:51:54;15.32;;;9.43;;
57085;SDS011;42964;42.910;23.792;2023-05-24T22:56:53;16.58;;;10.48;;
57085;SDS011;42964;42.910;23.792;2023-05-24T23:01:52;13.52;;;10.18;;
57085;SDS011;42964;42.910;23.792;2023-05-24T23:06:51;13.63;;;10.80;;
57085;SDS011;42964;42.910;23.792;2023-05-24T23:16:52;14.45;;;11.07;;
57085;SDS011;42964;42.910;23.792;2023-05-24T23:21:51;12.05;;;8.57;;
57085;SDS011;42964;42.910;23.792;2023-05-24T23:26:52;12.82;;;9.07;;
57085;SDS011;42964;42.910;23.792;2023-05-24T23:31:54;13.88;;;8.98;;
57085;SDS011;42964;42.910;23.792;2023-05-24T23:36:53;12.35;;;8.90;;
57085;SDS011;42964;42.910;23.792;2023-05-24T23:41:52;13.48;;;9.60;;
57085;SDS011;42964;42.910;23.792;2023-05-24T23:51:50;11.83;;;8.53;;
